createdAt,value
2023-04-16T00:02:14.702Z,2.08
2023-04-16T00:04:42.031Z,2.95
2023-04-16T00:07:09.546Z,2.50
2023-04-16T00:09:36.781Z,2.97
2023-04-16T00:12:04.450Z,2.40
2023-04-16T00:14:31.653Z,2.97
2023-04-16T00:16:58.997Z,3.63
2023-04-16T00:19:26.252Z,3.38
2023-04-16T00:21:53.776Z,3.43
2023-04-16T00:24:21.049Z,3.85
2023-04-16T00:26:48.219Z,4.03
2023-04-16T00:29:15.535Z,2.85
2023-04-16T00:31:42.721Z,3.15
2023-04-16T00:34:10.041Z,4.13
2023-04-16T00:36:37.277Z,3.75
2023-04-16T00:39:05.586Z,4.28
2023-04-16T00:41:32.867Z,4.10
2023-04-16T00:44:00.011Z,4.38
2023-04-16T00:46:27.577Z,3.80
2023-04-16T00:48:56.283Z,4.25
2023-04-16T00:51:23.918Z,4.68
2023-04-16T00:53:51.521Z,4.78
2023-04-16T00:56:20.532Z,4.18
2023-04-16T00:58:48.464Z,4.73
2023-04-16T01:01:15.839Z,4.63
2023-04-16T01:03:45.795Z,4.15
2023-04-16T01:06:13.699Z,4.07
2023-04-16T01:08:40.911Z,3.70
2023-04-16T01:11:08.442Z,4.33
2023-04-16T01:13:39.268Z,3.65
2023-04-16T01:16:11.948Z,4.18
2023-04-16T01:18:39.659Z,4.00
2023-04-16T01:21:07.029Z,3.72
2023-04-16T01:23:34.479Z,3.10
2023-04-16T01:26:05.791Z,3.50
2023-04-16T01:28:33.052Z,3.75
2023-04-16T01:31:00.544Z,4.30
2023-04-16T01:33:37.709Z,3.63
2023-04-16T01:36:05.289Z,3.83
2023-04-16T01:38:32.595Z,3.85
2023-04-16T01:40:59.954Z,3.60
2023-04-16T01:43:27.139Z,3.63
2023-04-16T01:46:11.088Z,3.63
2023-04-16T01:48:38.312Z,3.53
2023-04-16T01:51:05.912Z,4.22
2023-04-16T01:53:34.718Z,3.92
2023-04-16T01:56:04.111Z,3.65
2023-04-16T01:58:33.598Z,3.78
2023-04-16T02:01:01.337Z,3.50
2023-04-16T02:03:28.857Z,3.25
2023-04-16T02:05:56.262Z,2.67
2023-04-16T02:08:23.514Z,3.17
2023-04-16T02:10:51.134Z,3.08
2023-04-16T02:13:18.383Z,3.13
2023-04-16T02:15:49.149Z,3.20
2023-04-16T02:18:21.013Z,3.03
2023-04-16T02:20:49.718Z,3.13
2023-04-16T02:23:17.494Z,2.63
2023-04-16T02:25:47.308Z,3.70
2023-04-16T02:28:16.720Z,3.65
2023-04-16T02:30:45.730Z,3.10
2023-04-16T02:33:14.777Z,3.92
2023-04-16T02:35:53.186Z,3.40
2023-04-16T02:38:20.391Z,4.10
2023-04-16T02:40:47.668Z,4.15
2023-04-16T02:43:16.570Z,3.78
2023-04-16T02:45:44.780Z,4.22
2023-04-16T02:48:12.129Z,4.55
2023-04-16T02:50:39.320Z,4.53
2023-04-16T02:53:07.742Z,4.38
2023-04-16T02:55:34.965Z,4.57
2023-04-16T02:58:02.140Z,4.65
2023-04-16T03:00:29.413Z,5.20
2023-04-16T03:02:57.082Z,4.30
2023-04-16T03:05:24.544Z,5.32
2023-04-16T03:07:56.517Z,5.22
2023-04-16T03:10:24.861Z,5.22
2023-04-16T03:12:52.177Z,5.78
2023-04-16T03:15:19.387Z,6.50
2023-04-16T03:17:46.866Z,6.68
2023-04-16T03:20:14.477Z,7.38
2023-04-16T03:22:42.164Z,5.65
2023-04-16T03:25:09.604Z,7.05
2023-04-16T03:27:36.882Z,7.13
2023-04-16T03:30:05.421Z,7.65
2023-04-16T03:32:34.986Z,7.53
2023-04-16T03:35:05.173Z,6.50
2023-04-16T03:37:32.754Z,6.03
2023-04-16T03:40:00.193Z,8.53
2023-04-16T03:42:27.420Z,6.90
2023-04-16T03:44:54.630Z,7.40
2023-04-16T03:47:23.006Z,8.27
2023-04-16T03:49:53.475Z,8.68
2023-04-16T03:52:20.709Z,8.50
2023-04-16T03:54:48.181Z,8.70
2023-04-16T03:57:23.319Z,9.13
2023-04-16T03:59:51.585Z,9.82
2023-04-16T04:02:19.391Z,10.45
2023-04-16T04:04:46.819Z,10.33
2023-04-16T04:07:15.717Z,11.20
2023-04-16T04:09:43.189Z,9.52
2023-04-16T04:12:10.430Z,10.63
2023-04-16T04:14:39.969Z,9.30
2023-04-16T04:17:08.687Z,9.90
2023-04-16T04:19:36.269Z,9.15
2023-04-16T04:22:04.271Z,10.57
2023-04-16T04:24:31.541Z,10.80
2023-04-16T04:26:59.216Z,10.85
2023-04-16T04:29:26.354Z,9.57
2023-04-16T04:31:55.114Z,10.55
2023-04-16T04:34:23.686Z,11.75
2023-04-16T04:36:51.370Z,9.23
2023-04-16T04:39:21.461Z,10.95
2023-04-16T04:41:50.070Z,11.30
2023-04-16T04:44:18.774Z,9.65
2023-04-16T04:46:46.122Z,9.80
2023-04-16T04:49:15.745Z,10.07
2023-04-16T04:51:42.990Z,9.20
2023-04-16T04:54:10.363Z,8.23
2023-04-16T04:56:37.613Z,9.15
2023-04-16T04:59:04.806Z,8.18
2023-04-16T05:01:32.067Z,8.35
2023-04-16T05:03:59.419Z,9.10
2023-04-16T05:06:29.476Z,8.60
2023-04-16T05:08:57.025Z,9.73
2023-04-16T05:11:24.503Z,9.30
2023-04-16T05:13:51.994Z,9.18
2023-04-16T05:16:19.229Z,9.68
2023-04-16T05:18:46.402Z,9.77
2023-04-16T05:21:13.710Z,10.40
2023-04-16T05:23:40.862Z,10.45
2023-04-16T05:26:08.027Z,9.82
2023-04-16T05:28:35.250Z,10.23
2023-04-16T05:31:02.608Z,9.37
2023-04-16T05:33:29.854Z,9.93
2023-04-16T05:35:57.075Z,10.00
2023-04-16T05:38:24.272Z,11.18
2023-04-16T05:40:51.658Z,10.75
2023-04-16T05:43:18.902Z,10.43
2023-04-16T05:45:46.152Z,9.60
2023-04-16T05:48:13.806Z,9.05
2023-04-16T05:50:41.132Z,9.27
2023-04-16T05:53:09.570Z,9.25
2023-04-16T05:55:36.920Z,7.23
2023-04-16T05:58:04.997Z,8.52
2023-04-16T06:00:35.649Z,8.80
2023-04-16T06:03:03.678Z,10.18
2023-04-16T06:05:32.247Z,9.07
2023-04-16T06:07:59.581Z,10.20
2023-04-16T06:10:26.907Z,10.07
2023-04-16T06:12:54.219Z,9.68
2023-04-16T06:15:21.413Z,9.77
2023-04-16T06:17:49.689Z,8.73
2023-04-16T06:20:17.038Z,9.93
2023-04-16T06:22:44.306Z,7.20
2023-04-16T06:25:11.554Z,7.82
2023-04-16T06:27:38.768Z,8.27
2023-04-16T06:30:11.182Z,8.15
2023-04-16T06:32:38.608Z,9.00
2023-04-16T06:35:06.486Z,8.35
2023-04-16T06:37:33.637Z,8.60
2023-04-16T06:40:00.905Z,9.07
2023-04-16T06:42:28.226Z,8.18
2023-04-16T06:44:55.413Z,9.20
2023-04-16T06:47:22.665Z,8.75
2023-04-16T06:49:49.938Z,10.45
2023-04-16T06:52:17.190Z,10.10
2023-04-16T06:54:44.451Z,8.50
2023-04-16T06:57:11.755Z,9.83
2023-04-16T06:59:39.050Z,10.27
2023-04-16T07:02:08.928Z,9.02
2023-04-16T07:04:36.282Z,9.38
2023-04-16T07:07:03.486Z,9.52
2023-04-16T07:09:30.796Z,8.77
2023-04-16T07:11:57.982Z,8.52
2023-04-16T07:14:25.289Z,8.65
2023-04-16T07:16:52.595Z,8.50
2023-04-16T07:19:20.020Z,8.00
2023-04-16T07:21:47.263Z,7.50
2023-04-16T07:24:14.567Z,7.75
2023-04-16T07:26:41.782Z,7.32
2023-04-16T07:29:09.041Z,7.72
2023-04-16T07:31:36.544Z,7.43
2023-04-16T07:34:03.775Z,7.73
2023-04-16T07:36:31.749Z,7.28
2023-04-16T07:38:58.978Z,7.43
2023-04-16T07:41:26.294Z,7.68
2023-04-16T07:43:53.483Z,7.57
2023-04-16T07:46:21.835Z,7.87
2023-04-16T07:48:51.663Z,7.25
2023-04-16T07:51:18.848Z,8.35
2023-04-16T07:53:46.003Z,7.45
2023-04-16T07:56:13.170Z,7.25
2023-04-16T07:58:40.395Z,7.53
2023-04-16T08:01:07.656Z,7.75
2023-04-16T08:03:35.175Z,8.07
2023-04-16T08:06:02.532Z,8.00
2023-04-16T08:08:30.053Z,7.88
2023-04-16T08:10:57.989Z,8.70
2023-04-16T08:13:25.281Z,9.55
2023-04-16T08:15:52.598Z,8.45
2023-04-16T08:18:19.902Z,8.45
2023-04-16T08:20:47.103Z,8.95
2023-04-16T08:23:14.490Z,8.20
2023-04-16T08:25:41.666Z,7.82
2023-04-16T08:28:08.865Z,6.75
2023-04-16T08:30:36.258Z,8.23
2023-04-16T08:33:03.591Z,8.95
2023-04-16T08:35:30.939Z,7.67
2023-04-16T08:38:02.164Z,8.32
2023-04-16T08:40:31.183Z,8.20
2023-04-16T08:43:00.331Z,7.47
2023-04-16T08:45:27.876Z,6.75
2023-04-16T08:47:55.205Z,6.37
2023-04-16T08:50:28.222Z,6.93
2023-04-16T08:52:59.703Z,6.10
2023-04-16T08:55:35.914Z,6.57
2023-04-16T08:58:09.169Z,6.68
2023-04-16T09:00:38.834Z,6.77
2023-04-16T09:03:07.113Z,6.70
2023-04-16T09:05:35.472Z,6.40
2023-04-16T09:08:02.926Z,6.45
2023-04-16T09:10:30.220Z,6.60
2023-04-16T09:12:57.811Z,7.00
2023-04-16T09:15:25.791Z,6.68
2023-04-16T09:17:54.160Z,7.13
2023-04-16T09:20:21.466Z,7.35
2023-04-16T09:22:48.841Z,7.53
2023-04-16T09:25:16.217Z,7.33
2023-04-16T09:27:44.153Z,8.13
2023-04-16T09:30:26.088Z,7.88
2023-04-16T09:33:17.255Z,8.32
2023-04-16T09:35:49.228Z,8.70
2023-04-16T09:38:16.769Z,8.93
2023-04-16T09:40:44.056Z,8.85
2023-04-16T09:43:15.423Z,8.20
2023-04-16T09:45:53.370Z,8.57
2023-04-16T09:48:34.124Z,8.73
2023-04-16T09:51:01.681Z,9.63
2023-04-16T09:53:30.991Z,9.48
2023-04-16T09:55:59.840Z,8.65
2023-04-16T09:58:27.670Z,8.00
2023-04-16T10:01:07.930Z,7.47
2023-04-16T10:03:37.461Z,7.97
2023-04-16T10:06:14.830Z,8.13
2023-04-16T10:08:53.324Z,7.68
2023-04-16T10:11:21.381Z,7.90
2023-04-16T10:13:49.458Z,8.73
2023-04-16T10:16:17.714Z,8.77
2023-04-16T10:18:46.375Z,7.80
2023-04-16T10:21:15.332Z,8.88
2023-04-16T10:23:44.192Z,8.13
2023-04-16T10:26:11.547Z,8.10
2023-04-16T10:28:39.293Z,8.47
2023-04-16T10:31:08.608Z,8.43
2023-04-16T10:33:39.324Z,7.45
2023-04-16T10:36:15.300Z,8.65
2023-04-16T10:38:47.600Z,8.13
2023-04-16T10:41:14.921Z,8.73
2023-04-16T10:43:48.423Z,9.60
2023-04-16T10:46:29.235Z,8.85
2023-04-16T10:49:01.593Z,9.30
2023-04-16T10:51:34.428Z,9.90
2023-04-16T10:54:14.565Z,9.97
2023-04-16T10:56:44.115Z,9.40
2023-04-16T10:59:12.400Z,10.05
2023-04-16T11:01:44.614Z,10.48
2023-04-16T11:04:23.808Z,9.02
2023-04-16T11:07:13.913Z,9.50
2023-04-16T11:09:50.233Z,10.50
2023-04-16T11:12:22.202Z,10.65
2023-04-16T11:14:55.263Z,9.57
2023-04-16T11:17:22.763Z,9.55
2023-04-16T11:19:50.904Z,9.53
2023-04-16T11:22:21.189Z,10.07
2023-04-16T11:24:53.749Z,9.65
2023-04-16T11:27:21.055Z,10.00
2023-04-16T11:29:58.046Z,9.52
2023-04-16T11:32:25.365Z,10.27
2023-04-16T11:34:52.552Z,9.35
2023-04-16T11:37:35.973Z,9.07
2023-04-16T11:40:06.733Z,10.48
2023-04-16T11:42:38.090Z,9.32
2023-04-16T11:45:06.597Z,9.90
2023-04-16T11:47:46.839Z,9.38
2023-04-16T11:50:25.001Z,9.82
2023-04-16T11:52:57.086Z,10.52
2023-04-16T11:55:24.768Z,9.60
2023-04-16T11:57:52.380Z,9.30
2023-04-16T12:00:23.111Z,9.60
2023-04-16T12:02:56.991Z,9.32
2023-04-16T12:05:41.386Z,9.57
2023-04-16T12:08:10.583Z,8.55
2023-04-16T12:10:53.988Z,9.93
2023-04-16T12:13:21.408Z,9.63
2023-04-16T12:15:53.147Z,8.73
2023-04-16T12:18:22.993Z,8.30
2023-04-16T12:20:53.504Z,9.00
2023-04-16T12:23:28.863Z,8.83
2023-04-16T12:25:59.585Z,9.30
2023-04-16T12:28:34.874Z,8.95
2023-04-16T12:31:03.209Z,9.48
2023-04-16T12:33:31.099Z,9.60
2023-04-16T12:35:58.509Z,9.65
2023-04-16T12:38:26.671Z,9.13
2023-04-16T12:40:56.873Z,10.10
2023-04-16T12:43:24.953Z,9.52
2023-04-16T12:45:52.138Z,8.35
2023-04-16T12:48:19.402Z,8.97
2023-04-16T12:50:46.882Z,9.55
2023-04-16T12:53:14.181Z,9.20
2023-04-16T12:55:41.469Z,9.20
2023-04-16T12:58:10.552Z,9.02
2023-04-16T13:00:39.810Z,9.05
2023-04-16T13:03:07.102Z,8.95
2023-04-16T13:05:34.528Z,8.80
2023-04-16T13:08:02.107Z,8.25
2023-04-16T13:10:29.324Z,7.55
2023-04-16T13:12:56.933Z,8.93
2023-04-16T13:15:24.159Z,9.43
2023-04-16T13:17:51.389Z,8.45
2023-04-16T13:20:18.616Z,8.13
2023-04-16T13:22:45.877Z,8.02
2023-04-16T13:25:13.094Z,8.95
2023-04-16T13:27:40.333Z,8.73
2023-04-16T13:30:08.227Z,9.43
2023-04-16T13:32:35.688Z,8.73
2023-04-16T13:35:02.949Z,8.57
2023-04-16T13:37:30.360Z,8.90
2023-04-16T13:39:57.597Z,9.13
2023-04-16T13:42:24.799Z,10.02
2023-04-16T13:44:54.208Z,9.80
2023-04-16T13:47:21.662Z,8.77
2023-04-16T13:49:49.077Z,8.63
2023-04-16T13:52:16.791Z,8.93
2023-04-16T13:54:44.079Z,8.77
2023-04-16T13:57:19.838Z,8.50
2023-04-16T13:59:47.131Z,9.70
2023-04-16T14:02:14.699Z,9.05
2023-04-16T14:04:42.004Z,9.55
2023-04-16T14:07:09.188Z,8.88
2023-04-16T14:09:36.505Z,8.45
2023-04-16T14:12:03.880Z,8.85
2023-04-16T14:14:31.138Z,8.37
2023-04-16T14:16:58.845Z,9.20
2023-04-16T14:19:26.168Z,9.25
2023-04-16T14:21:54.315Z,9.07
2023-04-16T14:24:21.513Z,8.32
2023-04-16T14:26:48.746Z,8.10
2023-04-16T14:29:16.072Z,8.85
2023-04-16T14:31:43.288Z,8.20
2023-04-16T14:34:10.770Z,8.30
2023-04-16T14:36:40.828Z,7.82
2023-04-16T14:39:08.718Z,8.60
2023-04-16T14:41:36.087Z,8.98
2023-04-16T14:44:05.961Z,9.02
2023-04-16T14:46:33.742Z,9.75
2023-04-16T14:49:01.233Z,9.98
2023-04-16T14:51:28.496Z,9.40
2023-04-16T14:53:56.518Z,9.20
2023-04-16T14:56:23.776Z,9.27
2023-04-16T14:58:51.010Z,8.70
2023-04-16T15:01:18.387Z,9.32
2023-04-16T15:03:45.744Z,9.90
2023-04-16T15:06:14.006Z,10.18
2023-04-16T15:08:41.478Z,10.82
2023-04-16T15:11:08.695Z,10.10
2023-04-16T15:13:35.941Z,10.80
2023-04-16T15:16:04.777Z,10.05
2023-04-16T15:18:32.996Z,10.27
2023-04-16T15:21:00.429Z,10.32
2023-04-16T15:23:27.629Z,11.15
2023-04-16T15:25:54.872Z,10.23
2023-04-16T15:28:22.088Z,10.88
2023-04-16T15:30:51.903Z,9.93
2023-04-16T15:33:21.228Z,10.02
2023-04-16T15:35:48.492Z,10.05
2023-04-16T15:38:15.654Z,11.52
2023-04-16T15:40:42.854Z,11.00
2023-04-16T15:43:10.154Z,10.85
2023-04-16T15:45:37.604Z,11.02
2023-04-16T15:48:05.981Z,10.85
2023-04-16T15:50:33.559Z,10.88
2023-04-16T15:53:00.943Z,10.27
2023-04-16T15:55:28.203Z,10.80
2023-04-16T15:57:55.540Z,12.13
2023-04-16T16:00:22.965Z,10.95
2023-04-16T16:02:50.372Z,10.05
2023-04-16T16:05:17.778Z,8.52
2023-04-16T16:07:45.434Z,10.55
2023-04-16T16:10:13.538Z,9.82
2023-04-16T16:12:41.472Z,10.32
2023-04-16T16:15:10.907Z,10.18
2023-04-16T16:17:38.595Z,8.90
2023-04-16T16:20:10.228Z,9.80
2023-04-16T16:22:38.173Z,9.95
2023-04-16T16:25:07.465Z,11.15
2023-04-16T16:27:36.163Z,10.40
2023-04-16T16:30:06.468Z,9.52
2023-04-16T16:32:33.834Z,11.05
2023-04-16T16:35:01.436Z,9.25
2023-04-16T16:37:29.269Z,9.98
2023-04-16T16:39:56.747Z,9.65
2023-04-16T16:42:24.156Z,9.90
2023-04-16T16:44:51.381Z,10.02
2023-04-16T16:47:18.837Z,9.90
2023-04-16T16:49:46.595Z,10.00
2023-04-16T16:52:13.796Z,10.57
2023-04-16T16:54:42.612Z,9.30
2023-04-16T16:57:09.819Z,9.77
2023-04-16T16:59:37.022Z,10.65
2023-04-16T17:02:04.271Z,10.88
2023-04-16T17:04:31.630Z,9.95
2023-04-16T17:06:58.937Z,10.50
2023-04-16T17:09:26.691Z,10.80
2023-04-16T17:11:53.940Z,10.60
2023-04-16T17:14:21.139Z,10.85
2023-04-16T17:16:49.774Z,10.25
2023-04-16T17:19:17.872Z,10.30
2023-04-16T17:21:45.440Z,9.57
2023-04-16T17:24:12.764Z,9.82
2023-04-16T17:26:41.097Z,10.25
2023-04-16T17:29:08.329Z,10.85
2023-04-16T17:31:35.872Z,9.87
2023-04-16T17:34:05.777Z,10.60
2023-04-16T17:36:33.228Z,12.07
2023-04-16T17:39:00.480Z,13.63
2023-04-16T17:41:27.694Z,13.25
2023-04-16T17:43:54.922Z,12.80
2023-04-16T17:46:22.309Z,12.18
2023-04-16T17:48:49.503Z,11.43
2023-04-16T17:51:16.735Z,12.07
2023-04-16T17:53:44.639Z,11.25
2023-04-16T17:56:12.883Z,12.07
2023-04-16T17:58:40.237Z,11.95
2023-04-16T18:01:07.474Z,11.05
2023-04-16T18:03:35.008Z,12.45
2023-04-16T18:06:02.386Z,12.10
2023-04-16T18:08:29.732Z,12.93
2023-04-16T18:10:57.066Z,13.30
2023-04-16T18:13:24.595Z,12.50
2023-04-16T18:15:52.921Z,13.52
2023-04-16T18:18:21.196Z,13.35
2023-04-16T18:20:48.431Z,13.53
2023-04-16T18:23:15.647Z,14.63
2023-04-16T18:25:43.097Z,12.88
2023-04-16T18:28:13.624Z,13.27
2023-04-16T18:30:41.430Z,14.85
2023-04-16T18:33:34.223Z,13.43
2023-04-16T18:35:55.912Z,13.07
2023-04-16T18:38:23.142Z,13.25
2023-04-16T18:40:50.320Z,14.20
2023-04-16T18:43:17.668Z,12.93
2023-04-16T18:45:44.852Z,14.23
2023-04-16T18:48:12.049Z,13.68
2023-04-16T18:50:39.277Z,13.70
2023-04-16T18:53:06.474Z,14.43
2023-04-16T18:55:33.796Z,14.35
2023-04-16T18:58:01.078Z,13.17
2023-04-16T19:00:28.324Z,14.75
2023-04-16T19:02:55.706Z,13.80
2023-04-16T19:05:23.015Z,15.35
2023-04-16T19:07:50.249Z,15.02
2023-04-16T19:10:17.506Z,15.07
2023-04-16T19:12:44.756Z,15.73
2023-04-16T19:15:11.998Z,14.10
2023-04-16T19:17:39.827Z,14.60
2023-04-16T19:20:11.378Z,14.38
2023-04-16T19:22:38.806Z,15.57
2023-04-16T19:25:07.154Z,14.65
2023-04-16T19:27:36.680Z,15.15
2023-04-16T19:30:04.557Z,15.05
2023-04-16T19:32:31.969Z,14.13
2023-04-16T19:34:59.223Z,14.13
2023-04-16T19:37:27.140Z,13.77
2023-04-16T19:39:54.919Z,13.90
2023-04-16T19:42:22.257Z,13.38
2023-04-16T19:44:49.486Z,13.50
2023-04-16T19:47:16.767Z,15.37
2023-04-16T19:49:44.030Z,15.27
2023-04-16T19:52:11.298Z,13.35
2023-04-16T19:54:38.618Z,14.85
2023-04-16T19:57:06.020Z,14.38
2023-04-16T19:59:33.316Z,13.93
2023-04-16T20:02:01.063Z,12.93
2023-04-16T20:04:28.399Z,13.85
2023-04-16T20:06:55.831Z,13.85
2023-04-16T20:09:25.280Z,13.43
2023-04-16T20:11:52.540Z,14.53
2023-04-16T20:14:19.754Z,13.90
2023-04-16T20:16:46.962Z,13.75
2023-04-16T20:19:17.178Z,14.40
2023-04-16T20:21:45.508Z,14.02
2023-04-16T20:24:12.733Z,13.53
2023-04-16T20:26:40.045Z,14.38
2023-04-16T20:29:07.317Z,14.73
2023-04-16T20:31:34.520Z,13.98
2023-04-16T20:34:01.757Z,14.27
2023-04-16T20:36:28.971Z,14.17
2023-04-16T20:38:56.214Z,15.35
2023-04-16T20:41:25.005Z,15.38
2023-04-16T20:43:52.859Z,15.98
2023-04-16T20:46:24.155Z,16.33
2023-04-16T20:48:51.869Z,15.60
2023-04-16T20:51:19.183Z,15.80
2023-04-16T20:53:46.444Z,16.77
2023-04-16T20:56:14.980Z,16.80
2023-04-16T20:58:42.809Z,16.67
2023-04-16T21:01:10.196Z,16.37
2023-04-16T21:03:37.724Z,15.93
2023-04-16T21:06:05.185Z,16.13
2023-04-16T21:08:32.484Z,16.13
2023-04-16T21:10:59.770Z,16.48
2023-04-16T21:13:26.968Z,15.93
2023-04-16T21:15:54.169Z,15.82
2023-04-16T21:18:21.415Z,15.25
2023-04-16T21:20:48.677Z,16.13
2023-04-16T21:23:15.910Z,15.82
2023-04-16T21:25:43.116Z,15.47
2023-04-16T21:28:10.488Z,16.25
2023-04-16T21:30:38.253Z,15.90
2023-04-16T21:33:06.034Z,15.32
2023-04-16T21:35:33.668Z,14.50
2023-04-16T21:38:00.878Z,15.00
2023-04-16T21:40:28.142Z,16.13
2023-04-16T21:42:55.506Z,15.52
2023-04-16T21:45:22.665Z,17.95
2023-04-16T21:47:49.904Z,16.05
2023-04-16T21:50:17.221Z,15.40
2023-04-16T21:52:46.065Z,15.88
2023-04-16T21:55:14.393Z,16.10
2023-04-16T21:57:41.714Z,14.70
2023-04-16T22:00:13.648Z,15.68
2023-04-16T22:02:44.566Z,15.73
2023-04-16T22:05:12.143Z,16.75
2023-04-16T22:07:39.337Z,17.30
2023-04-16T22:10:08.644Z,14.88
2023-04-16T22:12:39.813Z,16.10
2023-04-16T22:15:08.964Z,15.40
2023-04-16T22:17:36.309Z,15.38
2023-04-16T22:20:08.883Z,15.18
2023-04-16T22:22:36.168Z,16.92
2023-04-16T22:25:03.574Z,17.35
2023-04-16T22:27:30.998Z,16.83
2023-04-16T22:29:58.244Z,18.83
2023-04-16T22:32:25.585Z,17.80
2023-04-16T22:34:52.877Z,16.63
2023-04-16T22:37:20.076Z,15.45
2023-04-16T22:39:47.335Z,18.07
2023-04-16T22:42:14.553Z,17.20
2023-04-16T22:44:41.809Z,15.02
2023-04-16T22:47:09.053Z,17.98
2023-04-16T22:49:36.222Z,17.73
2023-04-16T22:52:03.584Z,17.53
2023-04-16T22:54:31.410Z,18.08
2023-04-16T22:56:58.989Z,17.25
2023-04-16T22:59:26.321Z,18.42
2023-04-16T23:01:53.638Z,18.20
2023-04-16T23:04:20.873Z,18.23
2023-04-16T23:06:48.076Z,17.65
2023-04-16T23:09:15.532Z,16.85
2023-04-16T23:11:42.730Z,17.08
2023-04-16T23:14:09.933Z,15.43
2023-04-16T23:16:37.098Z,16.97
2023-04-16T23:19:04.311Z,15.80
2023-04-16T23:21:32.375Z,14.10
2023-04-16T23:23:59.619Z,15.27
2023-04-16T23:26:26.939Z,16.27
2023-04-16T23:28:54.151Z,15.07
2023-04-16T23:31:21.365Z,14.98
2023-04-16T23:33:48.669Z,14.43
2023-04-16T23:36:15.829Z,16.92
2023-04-16T23:38:42.995Z,16.85
2023-04-16T23:41:10.162Z,17.23
2023-04-16T23:43:39.968Z,17.90
2023-04-16T23:46:07.509Z,17.42
2023-04-16T23:48:34.751Z,17.17
2023-04-16T23:51:02.017Z,16.95
2023-04-16T23:53:29.256Z,17.83
2023-04-16T23:55:56.456Z,17.77
2023-04-16T23:58:24.207Z,19.17
